createdAt,value
2017-12-23T00:01:24.014Z,102901.52
2017-12-23T00:03:49.803Z,102910.11
2017-12-23T00:06:15.555Z,102899.98
2017-12-23T00:08:41.298Z,102895.18
2017-12-23T00:11:07.039Z,102894.23
2017-12-23T00:13:33.066Z,102900.06
2017-12-23T00:15:58.827Z,102894.55
2017-12-23T00:18:24.548Z,102903.19
2017-12-23T00:20:50.292Z,102894.37
2017-12-23T00:23:16.031Z,102890.39
2017-12-23T00:25:41.783Z,102883.66
2017-12-23T00:28:07.523Z,102880.33
2017-12-23T00:33:05.631Z,102865.31
2017-12-23T00:35:32.399Z,102869.30
2017-12-23T00:37:58.134Z,102864.77
2017-12-23T00:40:23.911Z,102859.84
2017-12-23T00:42:49.667Z,102866.44
2017-12-23T00:45:15.402Z,102859.88
2017-12-23T00:47:41.164Z,102867.48
2017-12-23T00:50:07.294Z,102844.20
2017-12-23T00:52:33.069Z,102832.50
2017-12-23T00:54:58.819Z,102822.38
2017-12-23T00:57:24.579Z,102824.22
2017-12-23T00:59:50.360Z,102818.58
2017-12-23T01:02:16.122Z,102819.89
2017-12-23T01:04:41.875Z,102812.84
2017-12-23T01:07:07.667Z,102821.16
2017-12-23T01:09:33.401Z,102836.34
2017-12-23T01:11:59.134Z,102830.78
2017-12-23T01:14:24.885Z,102819.39
2017-12-23T01:16:50.639Z,102805.47
2017-12-23T01:19:16.403Z,102802.03
2017-12-23T01:21:42.158Z,102801.05
2017-12-23T01:24:07.914Z,102809.31
2017-12-23T01:26:33.650Z,102800.95
2017-12-23T01:28:59.425Z,102792.14
2017-12-23T01:31:25.163Z,102801.36
2017-12-23T01:33:50.936Z,102811.44
2017-12-23T01:36:16.712Z,102814.47
2017-12-23T01:38:42.505Z,102820.58
2017-12-23T01:41:09.000Z,102818.31
2017-12-23T01:43:34.779Z,102813.16
2017-12-23T01:46:00.546Z,102793.86
2017-12-23T01:48:32.952Z,102784.59
2017-12-23T01:50:58.798Z,102782.34
2017-12-23T01:53:24.538Z,102792.37
2017-12-23T01:55:50.299Z,102783.97
2017-12-23T01:58:16.101Z,102780.94
2017-12-23T02:00:41.861Z,102770.38
2017-12-23T02:03:07.713Z,102749.86
2017-12-23T02:05:33.482Z,102741.91
2017-12-23T02:07:59.230Z,102723.94
2017-12-23T02:10:25.062Z,102718.70
2017-12-23T02:12:50.805Z,102712.99
2017-12-23T02:15:16.556Z,102715.81
2017-12-23T02:17:42.324Z,102718.30
2017-12-23T02:20:08.142Z,102730.13
2017-12-23T02:22:33.894Z,102724.85
2017-12-23T02:24:59.966Z,102719.92
2017-12-23T02:27:25.720Z,102725.44
2017-12-23T02:29:51.463Z,102726.47
2017-12-23T02:32:17.211Z,102729.82
2017-12-23T02:34:42.965Z,102737.95
2017-12-23T02:37:08.759Z,102732.34
2017-12-23T02:39:34.498Z,102730.81
2017-12-23T02:42:00.264Z,102736.45
2017-12-23T02:44:26.028Z,102726.02
2017-12-23T02:46:51.794Z,102717.17
2017-12-23T02:49:17.564Z,102722.77
2017-12-23T02:51:43.330Z,102709.63
2017-12-23T02:54:09.084Z,102701.78
2017-12-23T02:56:34.839Z,102696.91
2017-12-23T02:59:00.586Z,102696.94
2017-12-23T03:01:26.434Z,102680.74
2017-12-23T03:03:52.238Z,102667.87
2017-12-23T03:06:17.984Z,102671.98
2017-12-23T03:08:43.755Z,102661.15
2017-12-23T03:11:09.500Z,102651.17
2017-12-23T03:13:35.255Z,102647.78
2017-12-23T03:16:01.010Z,102638.74
2017-12-23T03:18:26.772Z,102627.91
2017-12-23T03:20:52.555Z,102635.39
2017-12-23T03:23:18.326Z,102632.81
2017-12-23T03:25:44.067Z,102625.45
2017-12-23T03:28:09.851Z,102620.34
2017-12-23T03:30:35.595Z,102605.56
2017-12-23T03:33:01.354Z,102597.79
2017-12-23T03:35:27.111Z,102584.28
2017-12-23T03:37:52.868Z,102580.88
2017-12-23T03:40:19.614Z,102584.44
2017-12-23T03:42:45.382Z,102578.80
2017-12-23T03:45:11.135Z,102569.74
2017-12-23T03:47:36.898Z,102568.84
2017-12-23T03:50:02.672Z,102556.69
2017-12-23T03:52:28.417Z,102551.44
2017-12-23T03:54:54.187Z,102553.77
2017-12-23T03:57:19.944Z,102548.56
2017-12-23T03:59:45.706Z,102545.98
2017-12-23T04:02:11.458Z,102536.06
2017-12-23T04:04:37.215Z,102525.09
2017-12-23T04:07:02.943Z,102517.27
2017-12-23T04:09:28.697Z,102512.59
2017-12-23T04:11:54.439Z,102509.14
2017-12-23T04:14:20.187Z,102504.84
2017-12-23T04:16:45.932Z,102507.12
2017-12-23T04:19:11.668Z,102501.09
2017-12-23T04:21:37.406Z,102507.27
2017-12-23T04:24:03.139Z,102502.95
2017-12-23T04:26:28.891Z,102489.44
2017-12-23T04:28:54.630Z,102486.09
2017-12-23T04:31:20.379Z,102488.89
2017-12-23T04:33:46.128Z,102483.84
2017-12-23T04:36:11.891Z,102484.95
2017-12-23T04:38:37.646Z,102487.16
2017-12-23T04:41:03.406Z,102473.79
2017-12-23T04:43:29.143Z,102473.02
2017-12-23T04:45:54.890Z,102467.09
2017-12-23T04:48:20.638Z,102468.53
2017-12-23T04:50:46.399Z,102459.70
2017-12-23T04:53:12.156Z,102449.81
2017-12-23T04:55:37.920Z,102451.24
2017-12-23T04:58:03.683Z,102442.14
2017-12-23T05:00:29.460Z,102448.77
2017-12-23T05:02:55.206Z,102436.63
2017-12-23T05:05:20.960Z,102434.09
2017-12-23T05:07:46.730Z,102431.16
2017-12-23T05:10:12.475Z,102430.43
2017-12-23T05:12:38.227Z,102423.92
2017-12-23T05:15:04.000Z,102431.97
2017-12-23T05:17:29.762Z,102418.05
2017-12-23T05:19:55.518Z,102416.08
2017-12-23T05:22:21.285Z,102410.92
2017-12-23T05:24:47.052Z,102402.67
2017-12-23T05:27:12.820Z,102400.98
2017-12-23T05:29:38.572Z,102391.77
2017-12-23T05:32:04.327Z,102382.75
2017-12-23T05:34:30.071Z,102371.91
2017-12-23T05:36:55.814Z,102386.45
2017-12-23T05:39:21.567Z,102381.75
2017-12-23T05:41:47.331Z,102379.13
2017-12-23T05:44:13.072Z,102375.73
2017-12-23T05:46:38.819Z,102379.31
2017-12-23T05:49:04.579Z,102366.61
2017-12-23T05:51:30.334Z,102366.27
2017-12-23T05:53:56.095Z,102362.84
2017-12-23T05:56:21.840Z,102363.84
2017-12-23T05:58:47.587Z,102369.18
2017-12-23T06:01:13.327Z,102355.09
2017-12-23T06:03:39.102Z,102339.37
2017-12-23T06:06:04.859Z,102331.56
2017-12-23T06:08:30.626Z,102326.31
2017-12-23T06:10:56.387Z,102325.09
2017-12-23T06:13:22.155Z,102318.55
2017-12-23T06:15:47.892Z,102314.19
2017-12-23T06:18:13.650Z,102307.61
2017-12-23T06:20:39.395Z,102297.17
2017-12-23T06:23:05.159Z,102293.24
2017-12-23T06:25:30.907Z,102271.23
2017-12-23T06:27:56.646Z,102275.67
2017-12-23T06:30:22.417Z,102286.74
2017-12-23T06:32:48.171Z,102289.29
2017-12-23T06:35:13.922Z,102290.27
2017-12-23T06:37:39.672Z,102297.77
2017-12-23T06:40:05.432Z,102304.81
2017-12-23T06:42:31.204Z,102315.80
2017-12-23T06:44:56.978Z,102321.07
2017-12-23T06:47:22.730Z,102308.77
2017-12-23T06:49:48.478Z,102309.64
2017-12-23T06:52:14.224Z,102310.13
2017-12-23T06:54:39.978Z,102304.06
2017-12-23T06:57:05.732Z,102287.79
2017-12-23T06:59:31.486Z,102300.06
2017-12-23T07:01:57.239Z,102279.43
2017-12-23T07:04:22.992Z,102296.12
2017-12-23T07:06:48.761Z,102310.64
2017-12-23T07:09:14.532Z,102303.16
2017-12-23T07:11:40.280Z,102282.11
2017-12-23T07:14:06.023Z,102287.36
2017-12-23T07:16:31.804Z,102276.42
2017-12-23T07:18:57.559Z,102281.23
2017-12-23T07:21:23.328Z,102287.82
2017-12-23T07:23:49.084Z,102282.56
2017-12-23T07:26:14.847Z,102286.95
2017-12-23T07:28:40.609Z,102292.64
2017-12-23T07:31:06.383Z,102302.33
2017-12-23T07:33:32.135Z,102307.15
2017-12-23T07:35:57.903Z,102306.75
2017-12-23T07:38:23.664Z,102310.66
2017-12-23T07:40:49.457Z,102304.09
2017-12-23T07:43:15.191Z,102314.23
2017-12-23T07:45:40.951Z,102320.82
2017-12-23T07:48:06.715Z,102312.48
2017-12-23T07:50:32.472Z,102301.05
2017-12-23T07:52:58.224Z,102303.25
2017-12-23T07:55:24.004Z,102300.22
2017-12-23T07:57:49.809Z,102298.02
2017-12-23T08:00:15.555Z,102293.64
2017-12-23T08:02:41.336Z,102298.49
2017-12-23T08:05:07.105Z,102294.54
2017-12-23T08:07:32.872Z,102287.48
2017-12-23T08:09:58.623Z,102275.67
2017-12-23T08:12:24.379Z,102267.33
2017-12-23T08:14:50.125Z,102271.77
2017-12-23T08:17:15.878Z,102267.33
2017-12-23T08:19:41.656Z,102266.06
2017-12-23T08:22:07.419Z,102286.23
2017-12-23T08:24:33.178Z,102272.20
2017-12-23T08:26:58.939Z,102273.98
2017-12-23T08:29:24.691Z,102272.24
2017-12-23T08:31:50.451Z,102279.28
2017-12-23T08:34:16.196Z,102281.47
2017-12-23T08:36:41.968Z,102285.84
2017-12-23T08:39:07.755Z,102289.36
2017-12-23T08:41:33.507Z,102297.25
2017-12-23T08:43:59.267Z,102297.27
2017-12-23T08:46:25.023Z,102299.89
2017-12-23T08:48:50.771Z,102298.59
2017-12-23T08:51:16.515Z,102299.03
2017-12-23T08:53:42.271Z,102306.92
2017-12-23T08:56:08.024Z,102291.11
2017-12-23T08:58:33.788Z,102301.63
2017-12-23T09:00:59.541Z,102302.49
2017-12-23T09:03:25.315Z,102299.00
2017-12-23T09:05:51.071Z,102286.23
2017-12-23T09:08:16.830Z,102278.36
2017-12-23T09:10:42.594Z,102280.55
2017-12-23T09:13:08.343Z,102243.22
2017-12-23T09:15:34.102Z,102265.17
2017-12-23T09:17:59.851Z,102266.47
2017-12-23T09:20:25.623Z,102254.20
2017-12-23T09:22:51.386Z,102247.14
2017-12-23T09:25:17.155Z,102252.45
2017-12-23T09:27:42.915Z,102252.88
2017-12-23T09:30:08.687Z,102253.78
2017-12-23T09:32:34.426Z,102252.02
2017-12-23T09:35:00.183Z,102256.43
2017-12-23T09:37:25.939Z,102255.12
2017-12-23T09:39:51.700Z,102258.63
2017-12-23T09:42:17.451Z,102264.78
2017-12-23T09:44:43.195Z,102260.39
2017-12-23T09:47:08.944Z,102270.51
2017-12-23T09:49:34.699Z,102277.97
2017-12-23T09:52:00.447Z,102293.33
2017-12-23T09:54:26.212Z,102279.25
2017-12-23T09:56:51.971Z,102283.19
2017-12-23T09:59:17.723Z,102278.39
2017-12-23T10:01:43.467Z,102272.66
2017-12-23T10:04:09.219Z,102267.84
2017-12-23T10:06:34.971Z,102260.79
2017-12-23T10:09:00.727Z,102257.28
2017-12-23T10:11:26.502Z,102259.92
2017-12-23T10:13:52.256Z,102241.04
2017-12-23T10:16:18.002Z,102246.32
2017-12-23T10:18:43.750Z,102261.66
2017-12-23T10:21:09.575Z,102253.31
2017-12-23T10:23:35.345Z,102244.09
2017-12-23T10:26:01.075Z,102253.77
2017-12-23T10:28:26.819Z,102237.50
2017-12-23T10:30:52.566Z,102231.80
2017-12-23T10:33:18.316Z,102231.33
2017-12-23T10:35:44.068Z,102233.11
2017-12-23T10:38:16.791Z,102227.40
2017-12-23T10:40:42.554Z,102233.55
2017-12-23T10:43:08.298Z,102228.26
2017-12-23T10:45:34.064Z,102233.97
2017-12-23T10:47:59.828Z,102227.36
2017-12-23T10:50:25.575Z,102218.12
2017-12-23T10:52:51.340Z,102208.50
2017-12-23T10:55:17.100Z,102208.92
2017-12-23T10:57:42.875Z,102212.86
2017-12-23T11:00:08.628Z,102210.23
2017-12-23T11:02:34.384Z,102187.85
2017-12-23T11:05:00.140Z,102183.44
2017-12-23T11:07:25.902Z,102176.85
2017-12-23T11:09:51.659Z,102177.30
2017-12-23T11:12:17.412Z,102172.49
2017-12-23T11:14:43.160Z,102166.76
2017-12-23T11:17:08.926Z,102166.77
2017-12-23T11:19:34.665Z,102157.53
2017-12-23T11:22:00.418Z,102157.11
2017-12-23T11:24:26.155Z,102147.02
2017-12-23T11:26:51.915Z,102153.17
2017-12-23T11:29:17.667Z,102169.88
2017-12-23T11:31:43.416Z,102157.58
2017-12-23T11:34:09.163Z,102157.14
2017-12-23T11:36:34.943Z,102156.70
2017-12-23T11:39:00.695Z,102168.16
2017-12-23T11:41:26.456Z,102168.62
2017-12-23T11:43:52.214Z,102156.77
2017-12-23T11:46:17.983Z,102165.95
2017-12-23T11:48:43.740Z,102153.23
2017-12-23T11:51:09.491Z,102159.83
2017-12-23T11:53:35.239Z,102165.09
2017-12-23T11:56:01.291Z,102159.83
2017-12-23T11:58:28.007Z,102162.85
2017-12-23T12:00:53.775Z,102157.58
2017-12-23T12:03:19.540Z,102159.34
2017-12-23T12:05:45.295Z,102147.48
2017-12-23T12:08:11.063Z,102141.75
2017-12-23T12:10:36.807Z,102141.73
2017-12-23T12:13:02.576Z,102135.59
2017-12-23T12:15:28.332Z,102131.64
2017-12-23T12:17:54.094Z,102123.73
2017-12-23T12:20:19.839Z,102121.08
2017-12-23T12:22:45.598Z,102122.39
2017-12-23T12:25:11.342Z,102124.59
2017-12-23T12:27:37.096Z,102114.48
2017-12-23T12:30:02.857Z,102116.69
2017-12-23T12:32:28.613Z,102126.36
2017-12-23T12:34:54.373Z,102115.83
2017-12-23T12:37:20.131Z,102116.67
2017-12-23T12:39:45.882Z,102110.09
2017-12-23T12:42:11.651Z,102107.05
2017-12-23T12:44:37.407Z,102100.02
2017-12-23T12:47:03.171Z,102092.98
2017-12-23T12:49:35.931Z,102110.58
2017-12-23T12:52:02.692Z,102094.33
2017-12-23T12:54:28.441Z,102082.48
2017-12-23T12:56:54.241Z,102074.55
2017-12-23T12:59:19.978Z,102073.27
2017-12-23T13:01:45.755Z,102086.45
2017-12-23T13:04:11.506Z,102063.60
2017-12-23T13:06:37.262Z,102090.38
2017-12-23T13:09:03.027Z,102085.99
2017-12-23T13:11:28.795Z,102067.98
2017-12-23T13:13:54.704Z,102073.70
2017-12-23T13:16:20.488Z,102081.61
2017-12-23T13:18:46.242Z,102093.44
2017-12-23T13:21:11.995Z,102082.91
2017-12-23T13:23:37.766Z,102082.89
2017-12-23T13:26:03.532Z,102066.66
2017-12-23T13:28:29.302Z,102066.21
2017-12-23T13:30:55.055Z,102064.02
2017-12-23T13:33:20.816Z,102071.03
2017-12-23T13:35:46.580Z,102072.36
2017-12-23T13:38:12.353Z,102065.77
2017-12-23T13:40:38.119Z,102066.64
2017-12-23T13:43:03.875Z,102060.94
2017-12-23T13:45:29.618Z,102064.45
2017-12-23T13:47:55.368Z,102045.14
2017-12-23T13:50:21.146Z,102056.55
2017-12-23T13:52:46.903Z,102057.87
2017-12-23T13:55:12.664Z,102058.74
2017-12-23T13:57:38.433Z,102053.48
2017-12-23T14:00:04.201Z,102049.52
2017-12-23T14:02:29.970Z,102038.12
2017-12-23T14:04:55.726Z,102032.12
2017-12-23T14:07:21.484Z,102036.81
2017-12-23T14:09:47.248Z,102037.69
2017-12-23T14:12:13.036Z,102028.92
2017-12-23T14:14:38.795Z,102026.69
2017-12-23T14:17:04.549Z,102023.63
2017-12-23T14:19:30.307Z,102007.38
2017-12-23T14:21:56.063Z,102022.30
2017-12-23T14:24:21.845Z,102023.63
2017-12-23T14:26:47.598Z,102010.03
2017-12-23T14:29:13.352Z,102008.70
2017-12-23T14:31:39.108Z,102010.02
2017-12-23T14:34:05.987Z,102005.22
2017-12-23T14:36:31.767Z,102003.90
2017-12-23T14:38:57.522Z,102011.36
2017-12-23T14:41:24.330Z,102000.83
2017-12-23T14:43:50.083Z,101987.20
2017-12-23T14:46:15.820Z,101994.23
2017-12-23T14:48:41.600Z,101992.04
2017-12-23T14:51:07.361Z,101987.23
2017-12-23T14:53:33.110Z,102010.48
2017-12-23T14:55:58.867Z,102009.63
2017-12-23T14:58:24.624Z,101992.95
2017-12-23T15:00:50.375Z,102005.22
2017-12-23T15:03:16.124Z,102002.59
2017-12-23T15:05:41.919Z,102001.28
2017-12-23T15:08:07.675Z,102010.50
2017-12-23T15:10:33.443Z,102005.69
2017-12-23T15:12:59.195Z,101996.46
2017-12-23T15:15:24.972Z,101997.33
2017-12-23T15:17:50.730Z,102014.03
2017-12-23T15:20:16.479Z,102007.88
2017-12-23T15:22:42.233Z,102012.69
2017-12-23T15:25:08.004Z,101989.46
2017-12-23T15:27:33.774Z,101984.16
2017-12-23T15:29:59.527Z,101998.65
2017-12-23T15:32:25.348Z,101990.33
2017-12-23T15:34:51.106Z,101983.30
2017-12-23T15:37:16.867Z,101971.86
2017-12-23T15:39:42.627Z,101969.24
2017-12-23T15:42:08.412Z,101976.30
2017-12-23T15:44:34.171Z,101977.17
2017-12-23T15:46:59.943Z,101982.89
2017-12-23T15:49:25.703Z,101981.55
2017-12-23T15:51:51.458Z,101982.02
2017-12-23T15:54:17.219Z,101974.53
2017-12-23T15:56:42.997Z,101976.73
2017-12-23T15:59:08.756Z,101982.91
2017-12-23T16:01:34.528Z,101976.75
2017-12-23T16:04:00.291Z,101971.92
2017-12-23T16:06:26.060Z,101978.06
2017-12-23T16:08:51.794Z,101970.17
2017-12-23T16:11:17.555Z,101984.22
2017-12-23T16:13:43.314Z,101964.00
2017-12-23T16:16:09.080Z,101961.38
2017-12-23T16:18:34.840Z,101959.17
2017-12-23T16:21:00.590Z,101966.20
2017-12-23T16:23:26.351Z,101964.91
2017-12-23T16:25:52.140Z,101951.72
2017-12-23T16:28:17.886Z,101952.58
2017-12-23T16:30:43.632Z,101946.44
2017-12-23T16:33:09.396Z,101947.75
2017-12-23T16:35:35.143Z,101946.88
2017-12-23T16:38:00.901Z,101962.27
2017-12-23T16:40:26.730Z,101960.93
2017-12-23T16:42:52.583Z,101961.36
2017-12-23T16:45:18.344Z,101954.36
2017-12-23T16:47:44.128Z,101950.41
2017-12-23T16:50:09.887Z,101935.91
2017-12-23T16:52:35.647Z,101929.31
2017-12-23T16:55:01.409Z,101930.19
2017-12-23T16:57:27.191Z,101923.62
2017-12-23T16:59:52.967Z,101913.97
2017-12-23T17:02:18.730Z,101924.05
2017-12-23T17:04:44.500Z,101919.24
2017-12-23T17:07:10.263Z,101908.69
2017-12-23T17:09:36.036Z,101903.86
2017-12-23T17:12:02.576Z,101890.25
2017-12-23T17:14:28.340Z,101898.14
2017-12-23T17:16:54.103Z,101898.14
2017-12-23T17:19:19.859Z,101892.90
2017-12-23T17:21:45.620Z,101895.53
2017-12-23T17:24:11.371Z,101889.83
2017-12-23T17:26:37.535Z,101907.83
2017-12-23T17:29:15.719Z,101910.03
2017-12-23T17:31:41.477Z,101902.55
2017-12-23T17:34:07.235Z,101913.98
2017-12-23T17:36:33.087Z,101898.61
2017-12-23T17:38:58.866Z,101889.83
2017-12-23T17:41:24.627Z,101902.13
2017-12-23T17:43:50.383Z,101899.04
2017-12-23T17:46:16.156Z,101900.38
2017-12-23T17:48:41.916Z,101881.92
2017-12-23T17:51:07.676Z,101902.55
2017-12-23T17:53:33.431Z,101891.16
2017-12-23T17:55:59.193Z,101896.87
2017-12-23T17:58:24.946Z,101888.94
2017-12-23T18:00:50.699Z,101890.70
2017-12-23T18:03:16.468Z,101878.38
2017-12-23T18:05:42.214Z,101886.30
2017-12-23T18:08:07.976Z,101879.70
2017-12-23T18:10:33.727Z,101867.87
2017-12-23T18:12:59.485Z,101881.45
2017-12-23T18:15:25.251Z,101884.12
2017-12-23T18:17:51.046Z,101890.69
2017-12-23T18:20:16.806Z,101880.58
2017-12-23T18:22:42.592Z,101895.94
2017-12-23T18:25:08.364Z,101881.45
2017-12-23T18:27:34.145Z,101894.20
2017-12-23T18:29:59.895Z,101891.13
2017-12-23T18:32:25.660Z,101869.16
2017-12-23T18:34:51.419Z,101876.61
2017-12-23T18:37:17.188Z,101884.09
2017-12-23T18:39:42.957Z,101869.13
2017-12-23T18:42:08.751Z,101875.30
2017-12-23T18:44:34.498Z,101884.52
2017-12-23T18:47:00.260Z,101872.66
2017-12-23T18:49:26.040Z,101871.34
2017-12-23T18:51:51.787Z,101863.43
2017-12-23T18:54:17.552Z,101865.62
2017-12-23T18:56:43.303Z,101868.72
2017-12-23T18:59:09.082Z,101872.22
2017-12-23T19:01:34.835Z,101860.81
2017-12-23T19:04:00.583Z,101860.80
2017-12-23T19:06:26.331Z,101865.62
2017-12-23T19:08:52.085Z,101865.62
2017-12-23T19:11:17.847Z,101863.00
2017-12-23T19:13:43.615Z,101866.93
2017-12-23T19:16:09.370Z,101865.62
2017-12-23T19:18:35.119Z,101868.70
2017-12-23T19:21:00.868Z,101875.28
2017-12-23T19:23:26.631Z,101874.84
2017-12-23T19:25:52.403Z,101869.12
2017-12-23T19:28:18.179Z,101860.80
2017-12-23T19:30:43.927Z,101860.79
2017-12-23T19:33:09.669Z,101871.77
2017-12-23T19:35:35.423Z,101857.70
2017-12-23T19:38:01.183Z,101862.12
2017-12-23T19:40:26.952Z,101864.74
2017-12-23T19:42:52.720Z,101854.63
2017-12-23T19:45:18.491Z,101870.88
2017-12-23T19:47:44.255Z,101858.16
2017-12-23T19:50:10.028Z,101867.37
2017-12-23T19:52:35.775Z,101870.44
2017-12-23T19:55:01.537Z,101865.17
2017-12-23T19:57:27.301Z,101866.48
2017-12-23T19:59:53.074Z,101882.76
2017-12-23T20:02:18.843Z,101863.45
2017-12-23T20:04:44.598Z,101852.00
2017-12-23T20:07:10.352Z,101849.81
2017-12-23T20:09:36.103Z,101848.05
2017-12-23T20:12:01.863Z,101842.80
2017-12-23T20:14:27.615Z,101839.72
2017-12-23T20:16:53.359Z,101832.24
2017-12-23T20:19:19.108Z,101837.95
2017-12-23T20:21:44.871Z,101851.13
2017-12-23T20:24:10.637Z,101834.88
2017-12-23T20:26:36.415Z,101836.19
2017-12-23T20:29:02.176Z,101830.49
2017-12-23T20:31:27.953Z,101832.25
2017-12-23T20:33:53.703Z,101830.06
2017-12-23T20:36:19.472Z,101816.88
2017-12-23T20:38:45.228Z,101821.71
2017-12-23T20:41:10.992Z,101815.56
2017-12-23T20:43:36.752Z,101820.81
2017-12-23T20:46:02.507Z,101819.08
2017-12-23T20:48:28.291Z,101825.66
2017-12-23T20:50:54.036Z,101805.88
2017-12-23T20:53:19.812Z,101823.45
2017-12-23T20:55:45.574Z,101824.78
2017-12-23T20:58:11.347Z,101830.94
2017-12-23T21:00:37.163Z,101830.05
2017-12-23T21:03:02.905Z,101855.10
2017-12-23T21:05:28.667Z,101848.50
2017-12-23T21:07:54.430Z,101840.59
2017-12-23T21:10:20.188Z,101858.19
2017-12-23T21:12:45.960Z,101840.59
2017-12-23T21:15:11.720Z,101855.10
2017-12-23T21:17:37.480Z,101861.68
2017-12-23T21:20:03.305Z,101839.30
2017-12-23T21:22:29.079Z,101846.34
2017-12-23T21:24:54.847Z,101845.45
2017-12-23T21:27:20.591Z,101852.48
2017-12-23T21:29:46.360Z,101842.38
2017-12-23T21:32:12.104Z,101838.85
2017-12-23T21:34:37.866Z,101847.66
2017-12-23T21:37:03.626Z,101860.84
2017-12-23T21:39:29.390Z,101801.08
2017-12-23T21:41:55.148Z,101837.06
2017-12-23T21:44:20.917Z,101834.00
2017-12-23T21:46:46.687Z,101839.72
2017-12-23T21:49:12.463Z,101851.16
2017-12-23T21:51:38.216Z,101823.06
2017-12-23T21:54:03.980Z,101835.80
2017-12-23T21:56:29.739Z,101811.59
2017-12-23T21:58:55.499Z,101817.31
2017-12-23T22:01:21.243Z,101836.64
2017-12-23T22:03:47.011Z,101813.34
2017-12-23T22:06:12.770Z,101826.53
2017-12-23T22:08:38.513Z,101842.80
2017-12-23T22:11:04.275Z,101834.45
2017-12-23T22:13:30.039Z,101825.67
2017-12-23T22:15:55.806Z,101825.23
2017-12-23T22:18:21.558Z,101823.48
2017-12-23T22:20:47.324Z,101822.61
2017-12-23T22:23:13.080Z,101808.06
2017-12-23T22:25:38.852Z,101821.27
2017-12-23T22:28:04.611Z,101817.77
2017-12-23T22:30:30.380Z,101802.36
2017-12-23T22:32:56.124Z,101787.01
2017-12-23T22:35:21.888Z,101785.69
2017-12-23T22:37:47.661Z,101778.22
2017-12-23T22:40:13.443Z,101781.26
2017-12-23T22:42:39.211Z,101788.71
2017-12-23T22:45:04.981Z,101781.17
2017-12-23T22:47:30.743Z,101789.97
2017-12-23T22:49:56.508Z,101787.84
2017-12-23T22:52:22.260Z,101792.64
2017-12-23T22:54:47.999Z,101781.22
2017-12-23T22:57:13.770Z,101767.61
2017-12-23T22:59:39.536Z,101775.95
2017-12-23T23:02:05.318Z,101786.91
2017-12-23T23:04:31.075Z,101777.27
2017-12-23T23:06:56.843Z,101775.93
2017-12-23T23:09:22.597Z,101745.61
2017-12-23T23:11:48.351Z,101768.88
2017-12-23T23:14:14.095Z,101761.38
2017-12-23T23:16:39.860Z,101759.66
2017-12-23T23:19:05.611Z,101774.11
2017-12-23T23:21:31.376Z,101761.39
2017-12-23T23:23:57.130Z,101772.37
2017-12-23T23:26:22.910Z,101764.03
2017-12-23T23:28:48.661Z,101755.66
2017-12-23T23:31:14.398Z,101745.99
2017-12-23T23:33:40.163Z,101749.98
2017-12-23T23:36:05.908Z,101755.23
2017-12-23T23:38:31.681Z,101765.35
2017-12-23T23:40:57.447Z,101728.89
2017-12-23T23:43:23.276Z,101748.20
2017-12-23T23:45:49.036Z,101766.64
2017-12-23T23:48:14.796Z,101761.38
2017-12-23T23:50:40.551Z,101768.84
2017-12-23T23:53:06.319Z,101772.78
2017-12-23T23:55:32.068Z,101764.39
2017-12-23T23:57:57.835Z,101776.75
